createdAt,value
2022-11-23T00:00:36.175Z,33.17
2022-11-23T00:03:03.450Z,19.77
2022-11-23T00:05:31.223Z,19.55
2022-11-23T00:07:58.460Z,25.00
2022-11-23T00:10:25.717Z,24.95
2022-11-23T00:12:52.926Z,25.98
2022-11-23T00:15:20.133Z,25.90
2022-11-23T00:17:48.441Z,25.85
2022-11-23T00:20:15.716Z,29.40
2022-11-23T00:22:43.011Z,28.55
2022-11-23T00:25:10.330Z,25.27
2022-11-23T00:27:37.720Z,26.80
2022-11-23T00:30:05.360Z,16.88
2022-11-23T00:32:32.632Z,23.73
2022-11-23T00:34:59.838Z,30.42
2022-11-23T00:37:27.060Z,26.85
2022-11-23T00:39:55.390Z,29.77
2022-11-23T00:42:22.620Z,27.88
2022-11-23T00:44:49.830Z,26.57
2022-11-23T00:47:17.060Z,21.08
2022-11-23T00:49:43.837Z,22.90
2022-11-23T00:52:11.072Z,26.58
2022-11-23T00:54:38.245Z,25.95
2022-11-23T00:57:05.518Z,25.77
2022-11-23T00:59:33.187Z,21.60
2022-11-23T01:02:00.980Z,22.48
2022-11-23T01:04:29.179Z,25.00
2022-11-23T01:06:58.384Z,22.15
2022-11-23T01:09:26.802Z,24.77
2022-11-23T01:11:54.368Z,18.60
2022-11-23T01:14:24.476Z,25.63
2022-11-23T01:16:51.949Z,24.60
2022-11-23T01:19:20.626Z,23.10
2022-11-23T01:21:50.869Z,16.50
2022-11-23T01:24:20.764Z,25.38
2022-11-23T01:26:52.546Z,16.30
2022-11-23T01:29:20.696Z,24.30
2022-11-23T01:31:47.926Z,17.00
2022-11-23T01:34:16.029Z,22.40
2022-11-23T01:36:43.647Z,24.60
2022-11-23T01:39:11.664Z,20.73
2022-11-23T01:41:40.842Z,22.63
2022-11-23T01:44:31.483Z,29.63
2022-11-23T01:47:00.955Z,23.27
2022-11-23T01:49:33.552Z,29.73
2022-11-23T01:52:06.915Z,22.50
2022-11-23T01:54:40.634Z,20.73
2022-11-23T01:57:17.039Z,27.42
2022-11-23T01:59:45.106Z,20.00
2022-11-23T02:02:13.786Z,16.75
2022-11-23T02:04:45.960Z,13.27
2022-11-23T02:07:16.236Z,20.85
2022-11-23T02:09:46.575Z,19.90
2022-11-23T02:12:14.552Z,17.13
2022-11-23T02:14:44.814Z,18.80
2022-11-23T02:17:12.210Z,13.20
2022-11-23T02:20:03.644Z,19.45
2022-11-23T02:22:52.476Z,18.80
2022-11-23T02:25:44.244Z,18.63
2022-11-23T02:28:21.649Z,14.63
2022-11-23T02:30:50.993Z,19.63
2022-11-23T02:33:18.170Z,13.75
2022-11-23T02:35:53.989Z,18.00
2022-11-23T02:38:23.490Z,19.87
2022-11-23T02:40:50.927Z,14.40
2022-11-23T02:43:27.503Z,23.30
2022-11-23T02:46:01.727Z,16.48
2022-11-23T02:48:28.901Z,18.55
2022-11-23T02:50:56.089Z,20.60
2022-11-23T02:53:24.622Z,11.68
2022-11-23T02:55:53.905Z,20.90
2022-11-23T02:58:21.096Z,23.60
2022-11-23T03:00:48.565Z,18.98
2022-11-23T03:03:20.060Z,19.00
2022-11-23T03:05:47.300Z,19.83
2022-11-23T03:08:14.497Z,17.08
2022-11-23T03:10:42.930Z,17.35
2022-11-23T03:13:11.189Z,12.63
2022-11-23T03:15:40.060Z,17.43
2022-11-23T03:18:07.024Z,14.20
2022-11-23T03:20:34.639Z,19.83
2022-11-23T03:23:01.437Z,21.40
2022-11-23T03:25:28.345Z,14.55
2022-11-23T03:27:57.059Z,12.70
2022-11-23T03:30:24.381Z,19.92
2022-11-23T03:32:51.893Z,19.35
2022-11-23T03:35:20.459Z,15.20
2022-11-23T03:38:14.162Z,15.25
2022-11-23T03:40:45.667Z,18.27
2022-11-23T03:43:21.494Z,19.60
2022-11-23T03:45:48.763Z,18.20
2022-11-23T03:48:16.181Z,17.50
2022-11-23T03:50:44.663Z,16.80
2022-11-23T03:53:13.426Z,16.97
2022-11-23T03:55:40.288Z,12.65
2022-11-23T03:58:07.127Z,15.82
2022-11-23T04:00:35.986Z,12.35
2022-11-23T04:03:04.382Z,16.58
2022-11-23T04:05:50.047Z,10.67
2022-11-23T04:08:40.125Z,15.45
2022-11-23T04:11:12.009Z,12.63
2022-11-23T04:13:41.930Z,4.55
2022-11-23T04:16:09.618Z,14.15
2022-11-23T04:18:37.960Z,18.13
2022-11-23T04:21:05.629Z,17.23
2022-11-23T04:23:32.883Z,13.45
2022-11-23T04:26:01.130Z,14.05
2022-11-23T04:28:29.806Z,16.63
2022-11-23T04:30:58.780Z,17.13
2022-11-23T04:33:26.772Z,15.30
2022-11-23T04:35:54.074Z,16.33
2022-11-23T04:38:21.355Z,14.57
2022-11-23T04:40:49.262Z,15.27
2022-11-23T04:43:16.514Z,12.77
2022-11-23T04:45:44.676Z,16.30
2022-11-23T04:48:20.933Z,11.25
2022-11-23T04:50:50.844Z,18.35
2022-11-23T04:53:27.122Z,17.83
2022-11-23T04:55:54.265Z,17.87
2022-11-23T04:58:21.539Z,11.82
2022-11-23T05:00:53.307Z,18.88
2022-11-23T05:03:20.613Z,18.05
2022-11-23T05:05:47.800Z,18.48
2022-11-23T05:08:15.080Z,12.57
2022-11-23T05:10:51.013Z,8.20
2022-11-23T05:13:19.283Z,19.40
2022-11-23T05:15:47.317Z,17.60
2022-11-23T05:18:18.964Z,11.07
2022-11-23T05:20:46.782Z,17.47
2022-11-23T05:23:16.112Z,15.85
2022-11-23T05:25:45.371Z,13.20
2022-11-23T05:28:39.220Z,11.93
2022-11-23T05:31:05.311Z,11.60
2022-11-23T05:33:32.703Z,13.63
2022-11-23T05:36:01.120Z,15.52
2022-11-23T05:38:36.473Z,15.43
2022-11-23T05:41:08.957Z,10.48
2022-11-23T05:43:38.568Z,16.80
2022-11-23T05:46:07.335Z,7.93
2022-11-23T05:48:35.968Z,12.75
2022-11-23T05:51:09.022Z,17.50
2022-11-23T05:53:39.968Z,10.23
2022-11-23T05:56:17.740Z,15.10
2022-11-23T05:59:08.150Z,10.77
2022-11-23T06:01:37.583Z,13.07
2022-11-23T06:04:06.883Z,11.73
2022-11-23T06:06:39.615Z,19.08
2022-11-23T06:09:06.907Z,16.55
2022-11-23T06:11:36.316Z,20.97
2022-11-23T06:14:12.878Z,14.45
2022-11-23T06:16:41.978Z,10.38
2022-11-23T06:19:35.792Z,15.32
2022-11-23T06:22:04.389Z,20.55
2022-11-23T06:24:34.871Z,10.90
2022-11-23T06:27:20.904Z,12.63
2022-11-23T06:29:50.717Z,13.02
2022-11-23T06:32:18.713Z,13.38
2022-11-23T06:34:45.966Z,9.40
2022-11-23T06:37:13.619Z,19.30
2022-11-23T06:39:40.985Z,12.77
2022-11-23T06:42:37.277Z,13.43
2022-11-23T06:44:56.171Z,18.27
2022-11-23T06:47:26.282Z,13.70
2022-11-23T06:49:54.059Z,16.43
2022-11-23T06:52:28.186Z,12.75
2022-11-23T06:54:55.489Z,15.27
2022-11-23T06:57:24.631Z,9.32
2022-11-23T06:59:52.171Z,11.85
2022-11-23T07:02:25.044Z,9.43
2022-11-23T07:04:54.987Z,18.90
2022-11-23T07:07:22.398Z,10.95
2022-11-23T07:09:58.085Z,8.50
2022-11-23T07:12:32.127Z,12.35
2022-11-23T07:15:01.198Z,12.30
2022-11-23T07:17:33.395Z,9.93
2022-11-23T07:20:00.172Z,16.35
2022-11-23T07:22:27.367Z,9.70
2022-11-23T07:24:54.551Z,13.38
2022-11-23T07:27:22.238Z,15.17
2022-11-23T07:29:49.519Z,21.42
2022-11-23T07:32:16.759Z,14.35
2022-11-23T07:34:44.587Z,20.20
2022-11-23T07:37:11.888Z,7.88
2022-11-23T07:39:56.728Z,14.83
2022-11-23T07:42:38.125Z,12.93
2022-11-23T07:45:09.392Z,9.45
2022-11-23T07:47:38.957Z,12.07
2022-11-23T07:50:11.023Z,16.63
2022-11-23T07:52:40.435Z,12.17
2022-11-23T07:55:07.823Z,12.13
2022-11-23T07:57:35.075Z,12.10
2022-11-23T08:00:02.545Z,14.00
2022-11-23T08:02:52.657Z,13.32
2022-11-23T08:05:27.107Z,11.20
2022-11-23T08:08:01.240Z,14.05
2022-11-23T08:10:29.977Z,17.10
2022-11-23T08:13:02.980Z,12.32
2022-11-23T08:15:30.249Z,13.07
2022-11-23T08:18:01.723Z,15.73
2022-11-23T08:20:29.973Z,19.95
2022-11-23T08:22:57.280Z,16.02
2022-11-23T08:25:25.708Z,13.18
2022-11-23T08:28:00.713Z,15.18
2022-11-23T08:30:29.128Z,12.67
2022-11-23T08:32:56.680Z,13.90
2022-11-23T08:35:23.915Z,17.23
2022-11-23T08:37:51.149Z,11.07
2022-11-23T08:40:24.715Z,12.20
2022-11-23T08:42:52.468Z,9.00
2022-11-23T08:45:20.537Z,11.80
2022-11-23T08:47:47.740Z,10.80
2022-11-23T08:50:15.072Z,13.40
2022-11-23T08:52:42.283Z,8.13
2022-11-23T08:55:09.617Z,15.10
2022-11-23T08:57:36.815Z,12.27
2022-11-23T09:00:05.598Z,10.35
2022-11-23T09:02:32.875Z,11.13
2022-11-23T09:05:00.761Z,11.52
2022-11-23T09:07:28.151Z,3.87
2022-11-23T09:09:55.458Z,9.70
2022-11-23T09:12:22.673Z,9.13
2022-11-23T09:14:49.874Z,35.17
2022-11-23T09:17:17.139Z,8.10
2022-11-23T09:19:44.380Z,6.83
2022-11-23T09:22:11.229Z,11.60
2022-11-23T09:24:38.522Z,13.52
2022-11-23T09:27:05.743Z,9.95
2022-11-23T09:29:32.564Z,15.73
2022-11-23T09:31:59.789Z,9.90
2022-11-23T09:34:27.035Z,13.80
2022-11-23T09:36:54.272Z,10.13
2022-11-23T09:39:21.633Z,14.43
2022-11-23T09:41:48.890Z,7.53
2022-11-23T09:44:36.830Z,14.83
2022-11-23T09:47:28.634Z,12.48
2022-11-23T09:50:07.747Z,16.27
2022-11-23T09:52:37.836Z,14.38
2022-11-23T09:55:13.704Z,11.63
2022-11-23T09:57:41.832Z,12.50
2022-11-23T10:00:22.645Z,10.98
2022-11-23T10:02:49.943Z,9.25
2022-11-23T10:05:30.321Z,6.18
2022-11-23T10:07:57.596Z,18.08
2022-11-23T10:10:50.209Z,7.30
2022-11-23T10:13:50.637Z,11.65
2022-11-23T10:16:36.610Z,10.00
2022-11-23T10:19:16.803Z,8.55
2022-11-23T10:22:09.411Z,8.80
2022-11-23T10:24:45.947Z,13.73
2022-11-23T10:27:17.754Z,9.63
2022-11-23T10:29:45.248Z,10.57
2022-11-23T10:32:31.651Z,11.35
2022-11-23T10:35:04.618Z,9.75
2022-11-23T10:37:33.243Z,7.60
2022-11-23T10:40:00.625Z,7.72
2022-11-23T10:42:38.610Z,5.15
2022-11-23T10:45:06.134Z,10.25
2022-11-23T10:47:59.482Z,8.77
2022-11-23T10:50:33.768Z,7.00
2022-11-23T10:53:05.200Z,12.10
2022-11-23T10:55:56.320Z,7.43
2022-11-23T10:58:31.300Z,13.00
2022-11-23T11:01:02.785Z,12.90
2022-11-23T11:03:35.765Z,5.67
2022-11-23T11:06:11.628Z,8.20
2022-11-23T11:08:55.178Z,8.65
2022-11-23T11:11:32.759Z,11.50
2022-11-23T11:14:10.062Z,7.18
2022-11-23T11:16:47.679Z,11.20
2022-11-23T11:19:23.121Z,11.27
2022-11-23T11:21:49.946Z,11.07
2022-11-23T11:24:21.256Z,10.38
2022-11-23T11:26:53.919Z,12.38
2022-11-23T11:29:40.132Z,7.20
2022-11-23T11:32:12.191Z,8.68
2022-11-23T11:34:45.167Z,11.60
2022-11-23T11:37:36.395Z,8.50
2022-11-23T11:40:11.922Z,8.02
2022-11-23T11:43:05.294Z,11.10
2022-11-23T11:45:37.638Z,9.75
2022-11-23T11:48:22.114Z,6.07
2022-11-23T11:50:56.944Z,11.95
2022-11-23T11:53:49.460Z,6.57
2022-11-23T11:56:29.144Z,8.67
2022-11-23T11:59:16.333Z,8.32
2022-11-23T12:01:56.769Z,7.20
2022-11-23T12:04:26.022Z,7.15
2022-11-23T12:07:26.963Z,17.48
2022-11-23T12:10:13.139Z,12.43
2022-11-23T12:12:40.781Z,8.30
2022-11-23T12:15:47.953Z,9.23
2022-11-23T12:18:34.796Z,5.28
2022-11-23T12:21:13.494Z,9.88
2022-11-23T12:23:57.108Z,7.70
2022-11-23T12:26:33.398Z,10.85
2022-11-23T12:29:00.657Z,10.18
2022-11-23T12:31:58.235Z,9.90
2022-11-23T12:35:00.699Z,11.90
2022-11-23T12:37:30.169Z,6.17
2022-11-23T12:40:07.324Z,10.23
2022-11-23T12:42:41.482Z,8.15
2022-11-23T12:45:27.101Z,10.05
2022-11-23T12:48:08.139Z,9.50
2022-11-23T12:50:54.495Z,5.20
2022-11-23T12:53:23.494Z,8.60
2022-11-23T12:56:07.101Z,9.50
2022-11-23T12:58:35.489Z,5.35
2022-11-23T13:01:25.210Z,6.97
2022-11-23T13:03:55.100Z,8.93
2022-11-23T13:06:39.913Z,6.10
2022-11-23T13:09:16.787Z,8.05
2022-11-23T13:11:58.987Z,7.20
2022-11-23T13:14:26.166Z,9.13
2022-11-23T13:17:40.184Z,6.13
2022-11-23T13:20:33.293Z,10.80
2022-11-23T13:23:01.463Z,9.15
2022-11-23T13:25:30.038Z,27.73
2022-11-23T13:28:06.095Z,12.20
2022-11-23T13:31:13.382Z,9.00
2022-11-23T13:33:30.620Z,9.43
2022-11-23T13:36:07.058Z,4.82
2022-11-23T13:38:52.655Z,8.13
2022-11-23T13:41:54.412Z,8.93
2022-11-23T13:44:21.691Z,8.37
2022-11-23T13:47:00.269Z,4.53
2022-11-23T13:49:31.631Z,3.78
2022-11-23T13:52:26.320Z,4.63
2022-11-23T13:55:20.169Z,4.70
2022-11-23T13:58:22.715Z,3.50
2022-11-23T14:00:54.412Z,4.65
2022-11-23T14:03:49.442Z,5.05
2022-11-23T14:06:46.119Z,6.63
2022-11-23T14:09:24.904Z,7.38
2022-11-23T14:12:12.871Z,9.13
2022-11-23T14:14:48.918Z,4.72
2022-11-23T14:17:23.965Z,5.18
2022-11-23T14:20:05.859Z,7.78
2022-11-23T14:23:00.188Z,6.40
2022-11-23T14:25:54.700Z,3.30
2022-11-23T14:28:51.562Z,6.00
2022-11-23T14:31:27.718Z,8.63
2022-11-23T14:34:18.883Z,6.50
2022-11-23T14:37:08.774Z,9.00
2022-11-23T14:39:54.370Z,4.30
2022-11-23T14:42:25.127Z,6.82
2022-11-23T14:44:53.362Z,5.57
2022-11-23T14:47:28.730Z,5.28
2022-11-23T14:49:56.629Z,8.15
2022-11-23T14:52:29.048Z,6.40
2022-11-23T14:54:57.812Z,2.95
2022-11-23T14:57:34.917Z,3.75
2022-11-23T15:00:07.097Z,7.65
2022-11-23T15:02:41.137Z,5.43
2022-11-23T15:05:08.563Z,8.33
2022-11-23T15:07:59.012Z,4.05
2022-11-23T15:10:42.101Z,6.95
2022-11-23T15:13:47.951Z,10.65
2022-11-23T15:16:17.307Z,6.47
2022-11-23T15:18:44.994Z,6.70
2022-11-23T15:21:12.277Z,7.35
2022-11-23T15:23:52.021Z,7.22
2022-11-23T15:26:47.562Z,5.95
2022-11-23T15:29:52.372Z,8.52
2022-11-23T15:32:32.744Z,7.03
2022-11-23T15:35:04.306Z,6.30
2022-11-23T15:37:32.660Z,5.75
2022-11-23T15:40:00.380Z,9.23
2022-11-23T15:42:28.592Z,8.13
2022-11-23T15:44:56.760Z,9.93
2022-11-23T15:47:29.153Z,5.05
2022-11-23T15:50:08.402Z,7.25
2022-11-23T15:52:37.549Z,6.80
2022-11-23T15:55:13.574Z,7.03
2022-11-23T15:57:41.267Z,9.77
2022-11-23T16:00:10.176Z,4.75
2022-11-23T16:02:40.525Z,6.97
2022-11-23T16:05:23.932Z,5.97
2022-11-23T16:07:51.197Z,5.88
2022-11-23T16:10:19.590Z,9.53
2022-11-23T16:12:57.599Z,8.43
2022-11-23T16:15:44.242Z,5.57
2022-11-23T16:18:13.899Z,8.60
2022-11-23T16:20:45.512Z,8.65
2022-11-23T16:23:19.782Z,7.87
2022-11-23T16:25:54.797Z,8.18
2022-11-23T16:28:29.647Z,8.63
2022-11-23T16:30:57.876Z,10.20
2022-11-23T16:33:25.527Z,7.97
2022-11-23T16:35:52.802Z,7.40
2022-11-23T16:38:20.011Z,6.55
2022-11-23T16:40:50.712Z,9.52
2022-11-23T16:43:18.627Z,8.50
2022-11-23T16:45:49.064Z,9.50
2022-11-23T16:48:25.339Z,7.33
2022-11-23T16:50:56.434Z,9.98
2022-11-23T16:53:26.781Z,13.40
2022-11-23T16:55:55.197Z,7.38
2022-11-23T16:58:22.991Z,7.88
2022-11-23T17:00:50.524Z,8.83
2022-11-23T17:03:19.653Z,5.63
2022-11-23T17:05:47.349Z,6.90
2022-11-23T17:08:19.874Z,9.05
2022-11-23T17:10:50.862Z,8.45
2022-11-23T17:13:26.738Z,7.03
2022-11-23T17:15:54.137Z,11.30
2022-11-23T17:18:22.479Z,8.32
2022-11-23T17:20:49.720Z,10.88
2022-11-23T17:23:17.044Z,8.85
2022-11-23T17:25:44.372Z,10.53
2022-11-23T17:28:15.533Z,9.80
2022-11-23T17:30:43.243Z,12.20
2022-11-23T17:33:13.435Z,9.00
2022-11-23T17:35:40.945Z,11.20
2022-11-23T17:38:15.434Z,11.57
2022-11-23T17:40:42.914Z,8.88
2022-11-23T17:43:14.600Z,9.95
2022-11-23T17:45:42.673Z,12.43
2022-11-23T17:48:12.799Z,10.05
2022-11-23T17:50:40.238Z,9.67
2022-11-23T17:53:07.732Z,11.70
2022-11-23T17:55:35.124Z,10.25
2022-11-23T17:58:02.468Z,12.20
2022-11-23T18:00:30.292Z,18.00
2022-11-23T18:02:57.587Z,16.30
2022-11-23T18:05:24.828Z,15.43
2022-11-23T18:07:52.182Z,11.32
2022-11-23T18:10:19.583Z,10.00
2022-11-23T18:12:47.536Z,13.98
2022-11-23T18:15:14.818Z,12.83
2022-11-23T18:17:42.408Z,11.32
2022-11-23T18:20:10.428Z,15.63
2022-11-23T18:22:38.208Z,10.35
2022-11-23T18:25:05.904Z,14.40
2022-11-23T18:27:33.180Z,13.30
2022-11-23T18:30:00.416Z,10.85
2022-11-23T18:32:27.684Z,12.23
2022-11-23T18:34:54.533Z,9.70
2022-11-23T18:37:21.797Z,12.75
2022-11-23T18:39:49.031Z,11.87
2022-11-23T18:42:15.903Z,11.68
2022-11-23T18:44:42.666Z,11.30
2022-11-23T18:47:09.572Z,9.82
2022-11-23T18:49:36.945Z,12.13
2022-11-23T18:52:04.253Z,17.47
2022-11-23T18:54:31.111Z,11.48
2022-11-23T18:56:58.319Z,14.50
2022-11-23T18:59:50.368Z,15.27
2022-11-23T19:02:13.286Z,11.98
2022-11-23T19:04:40.558Z,11.03
2022-11-23T19:07:07.857Z,14.32
2022-11-23T19:09:35.562Z,12.77
2022-11-23T19:12:03.090Z,12.73
2022-11-23T19:14:29.940Z,13.05
2022-11-23T19:16:57.174Z,15.87
2022-11-23T19:19:24.406Z,14.20
2022-11-23T19:21:51.618Z,11.90
2022-11-23T19:24:18.881Z,11.38
2022-11-23T19:26:45.659Z,21.63
2022-11-23T19:29:13.721Z,15.33
2022-11-23T19:31:41.034Z,11.88
2022-11-23T19:34:10.627Z,9.95
2022-11-23T19:36:37.878Z,11.23
2022-11-23T19:39:05.591Z,14.18
2022-11-23T19:41:33.010Z,15.17
2022-11-23T19:44:01.708Z,13.43
2022-11-23T19:46:30.293Z,8.77
2022-11-23T19:48:58.057Z,14.20
2022-11-23T19:51:26.263Z,16.17
2022-11-23T19:53:54.733Z,9.27
2022-11-23T19:56:24.298Z,22.08
2022-11-23T19:58:55.967Z,19.52
2022-11-23T20:01:24.842Z,12.65
2022-11-23T20:03:53.681Z,14.55
2022-11-23T20:06:21.790Z,15.03
2022-11-23T20:08:49.189Z,10.60
2022-11-23T20:11:17.294Z,14.98
2022-11-23T20:13:44.826Z,16.13
2022-11-23T20:16:14.403Z,19.38
2022-11-23T20:18:42.061Z,18.23
2022-11-23T20:21:17.714Z,13.45
2022-11-23T20:23:46.037Z,13.77
2022-11-23T20:26:14.750Z,15.82
2022-11-23T20:28:44.574Z,12.73
2022-11-23T20:31:30.842Z,12.73
2022-11-23T20:33:58.291Z,18.50
2022-11-23T20:36:30.405Z,17.50
2022-11-23T20:38:58.215Z,18.60
2022-11-23T20:41:30.421Z,18.48
2022-11-23T20:44:03.252Z,19.67
2022-11-23T20:47:00.697Z,13.73
2022-11-23T20:49:18.891Z,12.05
2022-11-23T20:51:45.760Z,21.77
2022-11-23T20:54:13.012Z,16.60
2022-11-23T20:56:40.309Z,14.80
2022-11-23T20:59:07.120Z,13.50
2022-11-23T21:01:35.086Z,15.80
2022-11-23T21:04:02.496Z,13.52
2022-11-23T21:06:31.452Z,18.52
2022-11-23T21:09:01.304Z,18.67
2022-11-23T21:11:47.566Z,11.20
2022-11-23T21:14:20.586Z,15.93
2022-11-23T21:16:56.072Z,15.43
2022-11-23T21:19:28.556Z,15.23
2022-11-23T21:21:57.345Z,13.43
2022-11-23T21:24:25.087Z,12.98
2022-11-23T21:26:52.484Z,18.88
2022-11-23T21:29:19.691Z,16.67
2022-11-23T21:31:48.561Z,13.23
2022-11-23T21:34:25.866Z,17.93
2022-11-23T21:36:54.128Z,17.33
2022-11-23T21:39:21.465Z,15.02
2022-11-23T21:41:53.473Z,22.17
2022-11-23T21:44:22.326Z,16.80
2022-11-23T21:46:49.896Z,20.93
2022-11-23T21:49:19.407Z,20.35
2022-11-23T21:51:46.716Z,22.88
2022-11-23T21:54:15.689Z,15.63
2022-11-23T21:56:46.500Z,13.90
2022-11-23T21:59:14.322Z,26.77
2022-11-23T22:01:42.179Z,22.92
2022-11-23T22:04:15.530Z,21.33
2022-11-23T22:06:44.511Z,21.30
2022-11-23T22:09:12.256Z,9.80
2022-11-23T22:11:41.630Z,18.27
2022-11-23T22:14:12.063Z,19.17
2022-11-23T22:16:44.162Z,20.75
2022-11-23T22:19:12.459Z,15.27
2022-11-23T22:21:40.763Z,24.05
2022-11-23T22:24:12.878Z,18.57
2022-11-23T22:26:40.226Z,19.58
2022-11-23T22:29:07.530Z,23.05
2022-11-23T22:31:35.282Z,34.40
2022-11-23T22:34:04.130Z,16.13
2022-11-23T22:36:31.401Z,29.77
2022-11-23T22:39:04.591Z,25.10
2022-11-23T22:41:37.034Z,21.92
2022-11-23T22:44:09.605Z,16.83
2022-11-23T22:46:37.589Z,20.08
2022-11-23T22:49:04.909Z,30.50
2022-11-23T22:51:32.190Z,27.13
2022-11-23T22:54:00.537Z,19.58
2022-11-23T22:56:28.995Z,15.60
2022-11-23T22:58:56.255Z,19.77
2022-11-23T23:01:28.963Z,18.00
2022-11-23T23:03:57.849Z,12.63
2022-11-23T23:06:26.829Z,22.73
2022-11-23T23:08:58.547Z,15.85
2022-11-23T23:11:27.751Z,21.83
2022-11-23T23:13:54.960Z,17.30
2022-11-23T23:16:22.466Z,21.02
2022-11-23T23:18:49.789Z,16.52
2022-11-23T23:21:19.158Z,19.73
2022-11-23T23:23:48.713Z,21.25
2022-11-23T23:26:17.280Z,15.13
2022-11-23T23:28:45.355Z,14.93
2022-11-23T23:31:17.049Z,22.52
2022-11-23T23:33:44.845Z,13.80
2022-11-23T23:36:14.746Z,24.88
2022-11-23T23:38:42.133Z,21.43
2022-11-23T23:41:10.557Z,16.17
2022-11-23T23:43:37.822Z,14.70
2022-11-23T23:46:09.850Z,16.00
2022-11-23T23:48:38.561Z,20.73
2022-11-23T23:51:10.852Z,20.90
2022-11-23T23:53:38.482Z,21.88
2022-11-23T23:56:09.225Z,18.52
2022-11-23T23:58:36.527Z,26.50
